Time;durP1;ratioP1;P1;durP2;ratioP2;P2;SDS_P1;SDS_P2;PMS_P1;PMS_P2;Temp;Humidity;BMP_temperature;BMP_pressure;BME280_temperature;BME280_humidity;BME280_pressure;Samples;Min_cycle;Max_cycle;Signal;HPM_P1;HPM_P2
2023/05/17 00:02:22;;;;;;;;;;;;;;;15.15;100.00;94566.47;5073902;28;973;-55
2023/05/17 00:04:48;;;;;;;;;;;;;;;15.19;100.00;94562.31;5073664;28;981;-55
2023/05/17 00:07:14;;;;;;;;;;;;;;;15.11;100.00;94573.28;5073530;28;1076;-55
2023/05/17 00:09:40;;;;;;;;;;;;;;;15.12;100.00;94581.16;5073675;28;1399;-55
2023/05/17 00:12:07;;;;;;;;;;;;;;;15.16;100.00;94571.66;5073556;28;1046;-55
2023/05/17 00:14:33;;;;;;;;;;;;;;;15.21;99.89;94568.34;5073304;28;1906;-55
2023/05/17 00:16:59;;;;;;;;;;;;;;;15.14;99.89;94568.34;5073497;28;1949;-55
2023/05/17 00:19:25;;;;;;;;;;;;;;;14.88;100.00;94560.19;5073253;28;996;-55
2023/05/17 00:21:51;;;;;;;;;;;;;;;14.85;100.00;94561.41;5073091;28;1036;-55
2023/05/17 00:24:17;;;;;;;;;;;;;;;14.90;100.00;94558.13;5073556;28;1040;-55
2023/05/17 00:26:43;;;;;;;;;;;;;;;14.88;100.00;94560.19;5073486;28;1030;-55
2023/05/17 00:29:09;;;;;;;;;;;;;;;14.85;100.00;94558.72;5073381;28;1037;-55
2023/05/17 00:31:35;;;;;;;;;;;;;;;14.92;100.00;94564.13;5073569;28;989;-55
2023/05/17 00:34:01;;;;;;;;;;;;;;;14.88;100.00;94569.06;5073449;28;1993;-55
2023/05/17 00:36:27;;;;;;;;;;;;;;;14.79;100.00;94565.72;5073489;28;1048;-55
2023/05/17 00:38:53;;;;;;;;;;;;;;;14.72;100.00;94572.13;5073346;28;946;-55
2023/05/17 00:41:19;;;;;;;;;;;;;;;14.63;100.00;94576.84;5055485;28;1064;-55
2023/05/17 00:43:45;;;;;;;;;;;;;;;14.55;100.00;94577.81;5072797;28;1243;-55
2023/05/17 00:46:11;;;;;;;;;;;;;;;14.58;100.00;94582.00;5073123;28;1100;-55
2023/05/17 00:48:37;;;;;;;;;;;;;;;14.56;100.00;94576.78;5073133;28;1927;-55
2023/05/17 00:51:04;;;;;;;;;;;;;;;14.50;100.00;94572.19;5073356;28;1040;-55
2023/05/17 00:53:31;;;;;;;;;;;;;;;14.50;100.00;94574.88;5073371;28;1909;-55
2023/05/17 00:55:57;;;;;;;;;;;;;;;14.56;100.00;94579.47;5073431;28;1030;-55
2023/05/17 00:58:23;;;;;;;;;;;;;;;14.58;100.00;94579.31;5073036;28;1044;-54
2023/05/17 01:00:50;;;;;;;;;;;;;;;14.40;100.00;94574.44;5073350;28;1122;-55
2023/05/17 01:03:16;;;;;;;;;;;;;;;14.14;100.00;94573.25;5073204;28;968;-55
2023/05/17 01:05:42;;;;;;;;;;;;;;;14.01;100.00;94568.59;5072997;28;1026;-55
2023/05/17 01:08:08;;;;;;;;;;;;;;;13.93;100.00;94565.25;5072821;28;1586;-55
2023/05/17 01:10:34;;;;;;;;;;;;;;;14.00;100.00;94566.09;5073174;28;966;-55
2023/05/17 01:13:26;;;;;;;;;;;;;;;14.24;100.00;94568.31;5072937;28;1909;-55
2023/05/17 01:15:56;;;;;;;;;;;;;;;14.48;100.00;94584.19;5069928;28;1246;-54
2023/05/17 01:18:31;;;;;;;;;;;;;;;14.60;100.00;94577.25;5073204;28;1017;-54
2023/05/17 01:21:00;;;;;;;;;;;;;;;14.61;100.00;94578.91;5073160;28;1020;-54
2023/05/17 01:23:44;;;;;;;;;;;;;;;14.64;100.00;94583.88;5072751;28;1017;-54
2023/05/17 01:26:15;;;;;;;;;;;;;;;14.73;99.95;94589.94;5072726;28;985;-54
2023/05/17 01:28:43;;;;;;;;;;;;;;;14.80;99.53;94582.72;5072701;28;1053;-54
2023/05/17 01:31:10;;;;;;;;;;;;;;;14.63;99.20;94582.22;5072726;28;1113;-54
2023/05/17 01:33:37;;;;;;;;;;;;;;;14.50;100.00;94579.44;5074735;28;1989;-54
2023/05/17 01:36:03;;;;;;;;;;;;;;;14.51;100.00;94578.41;5076445;28;1034;-54
2023/05/17 01:38:29;;;;;;;;;;;;;;;14.58;100.00;94579.31;5076397;28;1049;-54
2023/05/17 01:40:55;;;;;;;;;;;;;;;14.71;100.00;94584.75;5076420;28;1010;-54
2023/05/17 01:43:23;;;;;;;;;;;;;;;14.88;99.58;94584.41;5076181;28;1407;-54
2023/05/17 01:45:55;;;;;;;;;;;;;;;14.98;99.38;94584.84;5076270;28;1060;-54
2023/05/17 01:48:21;;;;;;;;;;;;;;;15.02;99.06;94578.88;5076353;28;1033;-54
2023/05/17 01:50:53;;;;;;;;;;;;;;;14.90;100.00;94580.47;5076501;28;1057;-54
2023/05/17 01:53:21;;;;;;;;;;;;;;;14.86;98.67;94573.00;5076402;28;1992;-54
2023/05/17 01:55:51;;;;;;;;;;;;;;;14.77;99.93;94570.47;5076417;28;1029;-54
2023/05/17 01:58:20;;;;;;;;;;;;;;;14.67;100.00;94575.41;5076157;28;1048;-54
2023/05/17 02:00:48;;;;;;;;;;;;;;;14.71;100.00;94583.91;5076222;28;974;-54
2023/05/17 02:03:17;;;;;;;;;;;;;;;14.67;100.00;94563.84;5058524;28;1040;-54
2023/05/17 02:05:43;;;;;;;;;;;;;;;14.68;100.00;94543.94;5076084;28;1201;-54
2023/05/17 02:08:09;;;;;;;;;;;;;;;14.71;100.00;94552.44;5075853;28;1544;-54
2023/05/17 02:10:36;;;;;;;;;;;;;;;14.66;100.00;94562.16;5076203;28;1040;-54
2023/05/17 02:13:02;;;;;;;;;;;;;;;14.64;100.00;94568.59;5075702;28;1910;-55
2023/05/17 02:15:28;;;;;;;;;;;;;;;14.64;100.00;94565.03;5075922;28;1056;-54
2023/05/17 02:17:54;;;;;;;;;;;;;;;14.59;100.00;94573.72;5076138;28;1044;-54
2023/05/17 02:20:20;;;;;;;;;;;;;;;14.54;100.00;94576.16;5075961;28;1025;-54
2023/05/17 02:22:46;;;;;;;;;;;;;;;14.28;100.00;94581.38;5075860;28;1048;-54
2023/05/17 02:25:12;;;;;;;;;;;;;;;14.23;100.00;94574.75;5075546;28;1975;-54
2023/05/17 02:27:38;;;;;;;;;;;;;;;14.26;100.00;94570.81;5075842;28;1230;-54
2023/05/17 02:30:05;;;;;;;;;;;;;;;14.36;100.00;94563.25;5075679;28;1049;-54
2023/05/17 02:32:31;;;;;;;;;;;;;;;14.42;100.00;94565.13;5075703;28;969;-53
2023/05/17 02:34:58;;;;;;;;;;;;;;;14.42;100.00;94572.38;5075456;28;1945;-55
2023/05/17 02:37:24;;;;;;;;;;;;;;;14.43;100.00;94574.03;5075297;28;1889;-53
2023/05/17 02:39:50;;;;;;;;;;;;;;;14.31;100.00;94572.94;5075518;28;1045;-53
2023/05/17 02:42:16;;;;;;;;;;;;;;;14.15;100.00;94577.59;5075282;28;1038;-53
2023/05/17 02:44:42;;;;;;;;;;;;;;;14.06;100.00;94571.53;5074410;28;1343;-53
2023/05/17 02:47:08;;;;;;;;;;;;;;;14.07;100.00;94572.34;5075176;28;1034;-53
2023/05/17 02:49:34;;;;;;;;;;;;;;;14.05;100.00;94577.09;5075068;28;1608;-53
2023/05/17 02:52:01;;;;;;;;;;;;;;;13.94;100.00;94580.34;5075087;28;1096;-53
2023/05/17 02:54:27;;;;;;;;;;;;;;;13.88;100.00;94565.00;5075194;28;1917;-53
2023/05/17 02:56:53;;;;;;;;;;;;;;;13.95;100.00;94576.63;5074906;28;1030;-53
2023/05/17 02:59:19;;;;;;;;;;;;;;;13.93;100.00;94574.13;5075167;28;1041;-53
2023/05/17 03:01:45;;;;;;;;;;;;;;;13.84;100.00;94573.44;5075038;28;977;-53
2023/05/17 03:04:11;;;;;;;;;;;;;;;13.89;100.00;94586.31;5074796;28;1057;-53
2023/05/17 03:06:37;;;;;;;;;;;;;;;13.99;100.00;94588.66;5074771;28;1062;-53
2023/05/17 03:09:03;;;;;;;;;;;;;;;14.04;100.00;94594.28;5074748;28;1582;-53
2023/05/17 03:11:30;;;;;;;;;;;;;;;13.77;100.00;94591.38;5074830;28;989;-53
2023/05/17 03:13:56;;;;;;;;;;;;;;;13.70;100.00;94595.00;5074617;28;1914;-53
2023/05/17 03:16:22;;;;;;;;;;;;;;;13.76;100.00;94581.66;5074630;28;1044;-53
2023/05/17 03:18:48;;;;;;;;;;;;;;;13.77;100.00;94587.84;5074893;28;1045;-54
2023/05/17 03:21:14;;;;;;;;;;;;;;;13.73;100.00;94589.25;5074448;28;1081;-54
2023/05/17 03:23:40;;;;;;;;;;;;;;;13.80;100.00;94588.28;5074521;28;1089;-54
2023/05/17 03:26:06;;;;;;;;;;;;;;;13.91;100.00;94594.19;5074717;28;1029;-54
2023/05/17 03:28:32;;;;;;;;;;;;;;;13.97;100.00;94588.00;5074382;28;962;-54
2023/05/17 03:30:58;;;;;;;;;;;;;;;14.01;100.00;94578.53;5074507;28;1057;-54
2023/05/17 03:33:24;;;;;;;;;;;;;;;13.93;100.00;94582.19;5074127;28;1985;-54
2023/05/17 03:35:50;;;;;;;;;;;;;;;13.78;100.00;94590.34;5074457;28;1016;-54
2023/05/17 03:38:16;;;;;;;;;;;;;;;13.69;100.00;94591.50;5074179;28;1028;-53
2023/05/17 03:40:42;;;;;;;;;;;;;;;13.74;100.00;94582.88;5056471;28;1053;-54
2023/05/17 03:43:09;;;;;;;;;;;;;;;13.81;100.00;94591.81;5074093;28;1127;-54
2023/05/17 03:45:35;;;;;;;;;;;;;;;13.94;100.00;94593.75;5074081;28;852;-54
2023/05/17 03:48:01;;;;;;;;;;;;;;;14.00;100.00;94595.66;5074312;28;1084;-54
2023/05/17 03:50:27;;;;;;;;;;;;;;;14.05;100.00;94590.53;5073809;28;1017;-54
2023/05/17 03:52:53;;;;;;;;;;;;;;;14.08;100.00;94594.72;5073967;28;1286;-54
2023/05/17 03:55:19;;;;;;;;;;;;;;;14.14;100.00;94589.38;5074018;28;1979;-54
2023/05/17 03:57:45;;;;;;;;;;;;;;;14.32;100.00;94604.16;5072861;28;1080;-53
2023/05/17 04:00:11;;;;;;;;;;;;;;;14.27;100.00;94610.13;5074045;28;1035;-54
2023/05/17 04:02:37;;;;;;;;;;;;;;;14.16;100.00;94611.50;5073889;28;1021;-55
2023/05/17 04:05:04;;;;;;;;;;;;;;;14.18;100.00;94614.81;5073671;28;1037;-55
2023/05/17 04:07:30;;;;;;;;;;;;;;;14.34;100.00;94620.91;5073894;28;1037;-55
2023/05/17 04:10:01;;;;;;;;;;;;;;;14.36;100.00;94622.41;5073895;28;1617;-55
2023/05/17 04:12:27;;;;;;;;;;;;;;;14.53;100.00;94624.75;5073791;28;1041;-56
2023/05/17 04:14:54;;;;;;;;;;;;;;;14.80;100.00;94623.91;5073542;28;1909;-54
2023/05/17 04:17:20;;;;;;;;;;;;;;;15.12;100.00;94618.00;5073393;28;1088;-54
2023/05/17 04:19:46;;;;;;;;;;;;;;;15.37;100.00;94610.22;5073292;28;1101;-55
2023/05/17 04:22:12;;;;;;;;;;;;;;;15.47;100.00;94610.66;5073215;28;895;-55
2023/05/17 04:24:38;;;;;;;;;;;;;;;15.53;98.34;94603.63;5073495;28;1041;-55
2023/05/17 04:27:05;;;;;;;;;;;;;;;15.63;97.68;94604.03;5073376;28;1063;-55
2023/05/17 04:29:31;;;;;;;;;;;;;;;15.84;95.43;94613.84;5073235;28;1042;-55
2023/05/17 04:31:58;;;;;;;;;;;;;;;15.98;95.29;94614.69;5073343;28;961;-55
2023/05/17 04:34:25;;;;;;;;;;;;;;;16.13;95.57;94609.06;5073342;28;1996;-55
2023/05/17 04:36:51;;;;;;;;;;;;;;;16.30;93.78;94610.28;5073478;28;993;-55
2023/05/17 04:39:19;;;;;;;;;;;;;;;16.40;93.37;94609.84;5073136;28;1045;-55
2023/05/17 04:41:45;;;;;;;;;;;;;;;16.61;92.36;94618.75;5073061;28;1030;-56
2023/05/17 04:44:11;;;;;;;;;;;;;;;16.62;91.96;94609.59;5072978;28;1355;-56
2023/05/17 04:46:37;;;;;;;;;;;;;;;16.63;93.21;94613.97;5073484;28;973;-56
2023/05/17 04:49:03;;;;;;;;;;;;;;;16.45;93.66;94614.59;5055307;28;1069;-55
2023/05/17 04:51:30;;;;;;;;;;;;;;;16.35;95.17;94623.13;5072995;28;1038;-55
2023/05/17 04:53:59;;;;;;;;;;;;;;;16.44;94.65;94624.56;5073307;28;1914;-56
2023/05/17 04:56:26;;;;;;;;;;;;;;;16.49;94.89;94629.38;5073163;28;990;-55
2023/05/17 04:58:53;;;;;;;;;;;;;;;16.45;95.69;94631.66;5073016;28;1050;-55
2023/05/17 05:01:19;;;;;;;;;;;;;;;16.70;94.06;94642.59;5072871;28;1038;-55
2023/05/17 05:03:45;;;;;;;;;;;;;;;16.86;91.41;94654.00;5072409;28;1121;-55
2023/05/17 05:06:11;;;;;;;;;;;;;;;16.80;94.20;94647.53;5055342;28;1048;-55
2023/05/17 05:08:37;;;;;;;;;;;;;;;16.73;93.75;94652.97;5057304;28;1332;-54
2023/05/17 05:11:04;;;;;;;;;;;;;;;16.79;93.37;94657.53;5077185;28;1040;-55
2023/05/17 05:13:30;;;;;;;;;;;;;;;16.75;90.92;94660.84;5076722;28;1910;-54
2023/05/17 05:15:56;;;;;;;;;;;;;;;16.78;92.94;94655.03;5076865;28;1101;-55
2023/05/17 05:18:22;;;;;;;;;;;;;;;16.84;94.14;94656.09;5076963;28;969;-54
2023/05/17 05:20:49;;;;;;;;;;;;;;;16.71;92.75;94655.06;5076704;28;1012;-55
2023/05/17 05:23:17;;;;;;;;;;;;;;;16.43;91.52;94651.75;5059183;28;1041;-55
2023/05/17 05:25:43;;;;;;;;;;;;;;;16.53;93.29;94658.41;5076603;28;1042;-55
2023/05/17 05:28:10;;;;;;;;;;;;;;;16.58;92.82;94660.50;5076665;28;1050;-54
2023/05/17 05:30:36;;;;;;;;;;;;;;;16.55;93.14;94652.81;5076525;28;1988;-54
2023/05/17 05:33:02;;;;;;;;;;;;;;;16.56;93.92;94662.53;5076666;28;1917;-54
2023/05/17 05:35:28;;;;;;;;;;;;;;;16.63;93.51;94662.53;5076649;28;958;-54
2023/05/17 05:37:55;;;;;;;;;;;;;;;16.66;93.73;94664.84;5059061;28;989;-55
2023/05/17 05:40:22;;;;;;;;;;;;;;;16.64;94.64;94651.53;5076239;28;1021;-55
2023/05/17 05:42:48;;;;;;;;;;;;;;;16.75;95.58;94663.53;5076201;28;1085;-56
2023/05/17 05:45:14;;;;;;;;;;;;;;;16.96;92.32;94666.03;5076514;28;1048;-55
2023/05/17 05:47:40;;;;;;;;;;;;;;;17.14;90.13;94662.63;5076488;28;997;-55
2023/05/17 05:50:07;;;;;;;;;;;;;;;17.63;89.45;94659.50;5076235;28;1041;-55
2023/05/17 05:52:33;;;;;;;;;;;;;;;17.97;87.94;94657.44;5076433;28;997;-55
2023/05/17 05:54:59;;;;;;;;;;;;;;;18.12;86.24;94661.47;5058420;28;1979;-55
2023/05/17 05:57:25;;;;;;;;;;;;;;;18.32;87.65;94658.59;5058292;28;1108;-55
2023/05/17 05:59:51;;;;;;;;;;;;;;;18.47;85.63;94660.97;5058373;28;1045;-55
2023/05/17 06:02:18;;;;;;;;;;;;;;;18.81;83.58;94666.94;5076169;28;966;-54
2023/05/17 06:04:47;;;;;;;;;;;;;;;19.17;81.10;94673.41;5076174;28;1033;-55
2023/05/17 06:07:13;;;;;;;;;;;;;;;19.04;84.50;94674.41;5075785;28;1030;-55
2023/05/17 06:09:40;;;;;;;;;;;;;;;18.87;85.51;94668.75;5076010;28;1303;-54
2023/05/17 06:12:06;;;;;;;;;;;;;;;18.97;85.00;94678.22;5075859;28;1062;-54
2023/05/17 06:14:33;;;;;;;;;;;;;;;18.87;85.95;94678.75;5075816;28;1969;-54
2023/05/17 06:16:59;;;;;;;;;;;;;;;18.67;87.15;94671.63;5075752;28;1290;-54
2023/05/17 06:19:25;;;;;;;;;;;;;;;18.55;86.67;94676.09;5074435;28;1274;-54
2023/05/17 06:21:51;;;;;;;;;;;;;;;18.53;84.68;94673.66;5075837;28;958;-54
2023/05/17 06:24:17;;;;;;;;;;;;;;;18.52;83.25;94674.69;5075584;28;1516;-54
2023/05/17 06:26:43;;;;;;;;;;;;;;;18.36;85.68;94675.22;5075708;28;1008;-54
2023/05/17 06:29:09;;;;;;;;;;;;;;;18.50;85.07;94675.97;5075568;28;1097;-55
2023/05/17 06:31:35;;;;;;;;;;;;;;;18.90;82.89;94684.56;5075495;28;1045;-54
2023/05/17 06:34:01;;;;;;;;;;;;;;;19.39;80.35;94697.34;5057683;28;1902;-54
2023/05/17 06:36:27;;;;;;;;;;;;;;;19.68;77.54;94690.31;5057643;28;1108;-54
2023/05/17 06:38:54;;;;;;;;;;;;;;;20.08;74.48;94687.91;5075453;28;1984;-54
2023/05/17 06:41:20;;;;;;;;;;;;;;;20.25;72.22;94688.06;5075271;28;1024;-54
2023/05/17 06:43:46;;;;;;;;;;;;;;;20.27;73.58;94687.84;5075279;28;1251;-54
2023/05/17 06:46:12;;;;;;;;;;;;;;;20.08;77.49;94698.75;5057370;28;1064;-54
2023/05/17 06:48:39;;;;;;;;;;;;;;;20.17;77.25;94687.59;5075487;28;1038;-54
2023/05/17 06:51:05;;;;;;;;;;;;;;;20.31;72.76;94683.59;5075321;28;1045;-54
2023/05/17 06:53:31;;;;;;;;;;;;;;;20.51;73.26;94685.16;5075271;28;1991;-54
2023/05/17 06:55:57;;;;;;;;;;;;;;;20.72;73.08;94691.94;5074914;28;1045;-54
2023/05/17 06:58:23;;;;;;;;;;;;;;;20.74;71.19;94698.78;5057496;28;984;-54
2023/05/17 07:00:49;;;;;;;;;;;;;;;20.70;72.54;94700.34;5074920;28;1164;-52
2023/05/17 07:03:15;;;;;;;;;;;;;;;20.82;71.80;94701.16;5075160;28;1014;-54
2023/05/17 07:05:41;;;;;;;;;;;;;;;20.46;72.69;94696.72;5057177;28;1092;-54
2023/05/17 07:08:07;;;;;;;;;;;;;;;20.14;75.75;94691.56;5074827;28;1657;-54
2023/05/17 07:10:34;;;;;;;;;;;;;;;20.34;74.59;94694.00;5074570;28;1050;-55
2023/05/17 07:13:00;;;;;;;;;;;;;;;20.57;75.45;94689.66;5074717;28;1113;-56
2023/05/17 07:15:26;;;;;;;;;;;;;;;20.88;75.94;94693.13;5074499;28;1981;-56
2023/05/17 07:17:52;;;;;;;;;;;;;;;21.27;72.96;94686.13;5074963;28;981;-56
2023/05/17 07:20:19;;;;;;;;;;;;;;;21.21;67.35;94693.34;5074748;28;1057;-56
2023/05/17 07:22:47;;;;;;;;;;;;;;;21.08;69.88;94690.88;5074489;28;1093;-55
2023/05/17 07:25:14;;;;;;;;;;;;;;;21.39;67.76;94695.06;5074323;28;1100;-56
2023/05/17 07:27:40;;;;;;;;;;;;;;;21.77;72.26;94695.59;5074556;28;1017;-56
2023/05/17 07:30:07;;;;;;;;;;;;;;;21.91;66.76;94696.97;5074394;28;1037;-58
2023/05/17 07:32:33;;;;;;;;;;;;;;;21.67;67.86;94703.56;5074066;28;1105;-54
2023/05/17 07:35:01;;;;;;;;;;;;;;;21.71;66.14;94694.66;5074359;28;1933;-59
2023/05/17 07:37:27;;;;;;;;;;;;;;;21.16;63.29;94689.69;5074150;28;1109;-57
2023/05/17 07:39:53;;;;;;;;;;;;;;;20.57;69.58;94685.03;5074125;28;1125;-58
2023/05/17 07:42:19;;;;;;;;;;;;;;;20.59;70.86;94679.38;5074365;28;974;-56
2023/05/17 07:44:47;;;;;;;;;;;;;;;20.52;71.62;94674.06;5073870;28;1097;-56
2023/05/17 07:47:13;;;;;;;;;;;;;;;20.96;69.46;94680.03;5074055;28;1050;-56
2023/05/17 07:49:41;;;;;;;;;;;;;;;21.38;66.95;94690.72;5074372;28;1065;-57
2023/05/17 07:52:07;;;;;;;;;;;;;;;21.69;66.85;94680.47;5056425;28;1513;-55
2023/05/17 07:54:33;;;;;;;;;;;;;;;21.96;66.99;94672.56;5056115;28;1910;-56
2023/05/17 07:57:00;;;;;;;;;;;;;;;21.94;64.82;94674.69;5073887;28;985;-56
2023/05/17 07:59:26;;;;;;;;;;;;;;;21.58;68.26;94679.44;5055997;28;1254;-58
2023/05/17 08:01:52;;;;;;;;;;;;;;;21.66;68.01;94674.69;5073997;28;1030;-56
2023/05/17 08:04:19;;;;;;;;;;;;;;;21.58;68.76;94670.47;5055974;28;1108;-56
2023/05/17 08:06:47;;;;;;;;;;;;;;;21.57;67.67;94664.22;5073653;28;1050;-56
2023/05/17 08:09:15;;;;;;;;;;;;;;;21.68;67.52;94664.41;5073406;28;1382;-56
2023/05/17 08:11:44;;;;;;;;;;;;;;;21.67;66.86;94662.75;5056133;28;982;-55
2023/05/17 08:14:15;;;;;;;;;;;;;;;21.55;65.36;94666.34;5073476;28;2035;-56
2023/05/17 08:16:45;;;;;;;;;;;;;;;22.22;61.47;94648.53;5073827;28;1041;-55
2023/05/17 08:19:12;;;;;;;;;;;;;;;22.20;60.53;94645.22;5073422;28;1132;-55
2023/05/17 08:21:39;;;;;;;;;;;;;;;22.14;62.02;94651.63;5073716;28;1678;-55
2023/05/17 08:24:06;;;;;;;;;;;;;;;21.60;63.48;94647.38;5073349;28;1071;-56
2023/05/17 08:26:33;;;;;;;;;;;;;;;21.05;64.77;94647.84;5073553;28;1127;-57
2023/05/17 08:29:01;;;;;;;;;;;;;;;20.96;66.23;94652.00;5073374;28;1022;-56
2023/05/17 08:31:28;;;;;;;;;;;;;;;20.54;66.73;94650.19;5073205;28;1120;-56
2023/05/17 08:33:54;;;;;;;;;;;;;;;20.33;66.75;94648.88;5073151;28;1989;-56
2023/05/17 08:36:21;;;;;;;;;;;;;;;20.13;69.48;94654.66;5055490;28;1145;-56
2023/05/17 08:38:47;;;;;;;;;;;;;;;20.13;69.73;94657.38;5073129;28;1054;-56
2023/05/17 08:41:14;;;;;;;;;;;;;;;19.97;68.66;94671.59;5073391;28;1106;-56
2023/05/17 08:43:40;;;;;;;;;;;;;;;19.86;68.54;94665.91;5051348;28;1213;-56
2023/05/17 08:46:08;;;;;;;;;;;;;;;19.82;70.00;94669.28;5053133;28;1121;-57
2023/05/17 08:48:40;;;;;;;;;;;;;;;19.73;72.24;94663.38;5053324;28;963;-54
2023/05/17 08:51:10;;;;;;;;;;;;;;;19.59;71.95;94661.84;5053131;28;1116;-56
2023/05/17 08:53:38;;;;;;;;;;;;;;;19.49;73.53;94674.06;5051835;28;1893;-55
2023/05/17 08:56:05;;;;;;;;;;;;;;;19.40;73.45;94666.47;5052215;28;1041;-55
2023/05/17 08:58:37;;;;;;;;;;;;;;;19.54;73.59;94645.44;5053214;28;1794;-55
2023/05/17 09:01:06;;;;;;;;;;;;;;;19.83;74.21;94643.84;5053347;28;1089;-63
2023/05/17 09:03:33;;;;;;;;;;;;;;;20.19;72.04;94645.56;5053168;28;1085;-60
2023/05/17 09:06:00;;;;;;;;;;;;;;;20.20;66.96;94636.34;5053136;28;1220;-56
2023/05/17 09:08:27;;;;;;;;;;;;;;;20.24;67.74;94631.28;5051567;28;1888;-55
2023/05/17 09:10:54;;;;;;;;;;;;;;;20.56;70.43;94628.25;5052982;28;1205;-55
2023/05/17 09:13:20;;;;;;;;;;;;;;;20.55;73.26;94629.31;5052863;28;1993;-56
2023/05/17 09:15:48;;;;;;;;;;;;;;;20.50;75.03;94610.19;5051926;28;1496;-56
2023/05/17 09:18:15;;;;;;;;;;;;;;;20.56;71.08;94609.25;5052963;28;1646;-56
2023/05/17 09:20:42;;;;;;;;;;;;;;;20.80;72.18;94610.09;5051689;28;1466;-56
2023/05/17 09:23:11;;;;;;;;;;;;;;;21.47;70.63;94608.78;5053025;28;1384;-56
2023/05/17 09:25:45;;;;;;;;;;;;;;;22.22;66.20;94602.25;5052867;28;1041;-56
2023/05/17 09:28:12;;;;;;;;;;;;;;;22.36;65.98;94598.13;5052784;28;1053;-58
2023/05/17 09:30:40;;;;;;;;;;;;;;;22.51;61.22;94594.00;5051583;28;1030;-59
2023/05/17 09:33:07;;;;;;;;;;;;;;;22.59;57.49;94588.13;5052775;28;1005;-57
2023/05/17 09:35:35;;;;;;;;;;;;;;;22.71;54.00;94597.03;5051546;28;1575;-54
2023/05/17 09:38:12;;;;;;;;;;;;;;;22.71;57.74;94591.59;5052580;28;1281;-54
2023/05/17 09:40:39;;;;;;;;;;;;;;;22.78;56.53;94586.78;5052782;28;2005;-55
2023/05/17 09:43:06;;;;;;;;;;;;;;;22.39;55.17;94588.66;5057716;28;1097;-54
2023/05/17 09:45:32;;;;;;;;;;;;;;;22.02;55.40;94570.88;5054767;28;1215;-54
2023/05/17 09:48:17;;;;;;;;;;;;;;;22.28;57.13;94571.31;5072602;28;1038;-53
2023/05/17 09:50:45;;;;;;;;;;;;;;;22.55;57.75;94566.00;5072757;28;1071;-54
2023/05/17 09:53:27;;;;;;;;;;;;;;;22.87;54.89;94562.63;5072366;28;1906;-53
2023/05/17 09:55:55;;;;;;;;;;;;;;;23.08;56.46;94569.19;5076134;28;1089;-53
2023/05/17 09:58:22;;;;;;;;;;;;;;;23.54;53.70;94582.56;5075922;28;1030;-54
2023/05/17 10:00:52;;;;;;;;;;;;;;;23.77;51.32;94581.44;5076332;28;982;-54
2023/05/17 10:03:19;;;;;;;;;;;;;;;23.67;51.23;94576.69;5076017;28;1042;-56
2023/05/17 10:05:49;;;;;;;;;;;;;;;23.79;50.80;94576.59;5076019;28;795;-56
2023/05/17 10:08:17;;;;;;;;;;;;;;;24.26;53.19;94569.63;5075692;28;1704;-57
2023/05/17 10:10:45;;;;;;;;;;;;;;;24.09;53.18;94562.41;5058530;28;1513;-56
2023/05/17 10:13:12;;;;;;;;;;;;;;;24.22;50.97;94566.59;5075607;28;1914;-58
2023/05/17 10:15:39;;;;;;;;;;;;;;;24.35;49.72;94566.13;5076023;28;1032;-57
2023/05/17 10:18:06;;;;;;;;;;;;;;;24.22;48.88;94555.66;5075722;28;1026;-57
2023/05/17 10:20:33;;;;;;;;;;;;;;;24.26;49.51;94540.38;5058193;28;958;-57
2023/05/17 10:23:02;;;;;;;;;;;;;;;24.52;45.57;94548.81;5075723;28;1037;-57
2023/05/17 10:25:28;;;;;;;;;;;;;;;24.37;46.99;94541.28;5075471;28;985;-57
2023/05/17 10:27:55;;;;;;;;;;;;;;;24.03;49.05;94538.84;5075533;28;1041;-57
2023/05/17 10:30:21;;;;;;;;;;;;;;;23.37;49.64;94541.72;5075661;28;1036;-57
2023/05/17 10:32:48;;;;;;;;;;;;;;;22.85;51.69;94531.25;5075413;28;1038;-57
2023/05/17 10:35:15;;;;;;;;;;;;;;;22.42;50.44;94534.50;5075330;28;1988;-56
2023/05/17 10:37:41;;;;;;;;;;;;;;;21.95;49.09;94534.84;5075685;28;1047;-56
2023/05/17 10:40:12;;;;;;;;;;;;;;;21.70;51.41;94527.06;5075387;28;970;-57
2023/05/17 10:42:41;;;;;;;;;;;;;;;21.44;49.50;94531.22;5075447;28;1105;-57
2023/05/17 10:45:08;;;;;;;;;;;;;;;21.18;50.04;94524.47;5075655;28;1087;-57
2023/05/17 10:47:34;;;;;;;;;;;;;;;20.88;52.31;94511.09;5075353;28;1014;-56
2023/05/17 10:50:02;;;;;;;;;;;;;;;20.64;50.68;94500.28;5075281;28;962;-56
2023/05/17 10:52:29;;;;;;;;;;;;;;;20.36;52.96;94482.84;5074934;28;1112;-56
2023/05/17 10:54:58;;;;;;;;;;;;;;;19.92;53.72;94479.69;5075271;28;1906;-56
2023/05/17 10:57:35;;;;;;;;;;;;;;;19.69;55.15;94475.00;5075322;28;982;-56
2023/05/17 11:00:05;;;;;;;;;;;;;;;19.47;55.44;94482.91;5075344;28;1013;-55
2023/05/17 11:02:31;;;;;;;;;;;;;;;19.23;57.54;94499.06;5075055;28;1033;-56
2023/05/17 11:04:59;;;;;;;;;;;;;;;18.98;59.23;94496.53;5074989;28;1017;-56
2023/05/17 11:07:31;;;;;;;;;;;;;;;18.65;64.05;94510.47;5074150;28;1884;-56
2023/05/17 11:10:05;;;;;;;;;;;;;;;18.02;69.48;94506.13;5074765;28;1575;-55
2023/05/17 11:12:41;;;;;;;;;;;;;;;17.25;73.12;94531.47;5074743;28;1080;-55
2023/05/17 11:15:09;;;;;;;;;;;;;;;16.94;73.36;94532.25;5074665;28;1909;-55
2023/05/17 11:17:35;;;;;;;;;;;;;;;16.69;74.17;94551.03;5074713;28;1046;-56
2023/05/17 11:20:05;;;;;;;;;;;;;;;16.61;75.67;94562.06;5074568;28;1136;-56
2023/05/17 11:22:36;;;;;;;;;;;;;;;16.51;77.47;94574.13;5074995;28;1024;-56
2023/05/17 11:25:05;;;;;;;;;;;;;;;16.36;83.55;94589.75;5074502;28;1092;-54
2023/05/17 11:27:38;;;;;;;;;;;;;;;16.14;87.00;94600.78;5074593;28;863;-54
2023/05/17 11:30:09;;;;;;;;;;;;;;;16.02;86.23;94609.69;5074550;28;982;-54
2023/05/17 11:32:35;;;;;;;;;;;;;;;16.17;88.16;94604.91;5074336;28;1054;-55
2023/05/17 11:35:01;;;;;;;;;;;;;;;16.13;87.54;94606.38;5056548;28;1914;-56
2023/05/17 11:37:28;;;;;;;;;;;;;;;15.94;90.61;94602.66;5074289;28;974;-55
2023/05/17 11:40:02;;;;;;;;;;;;;;;15.96;89.14;94604.09;5074411;28;1021;-54
2023/05/17 11:42:28;;;;;;;;;;;;;;;16.22;91.69;94602.44;5074041;28;1081;-55
2023/05/17 11:45:00;;;;;;;;;;;;;;;16.36;89.97;94611.31;5074130;28;1965;-55
2023/05/17 11:47:26;;;;;;;;;;;;;;;16.66;89.86;94608.16;5074356;28;962;-54
2023/05/17 11:49:59;;;;;;;;;;;;;;;16.99;89.90;94618.84;5074237;28;1053;-55
2023/05/17 11:52:26;;;;;;;;;;;;;;;17.32;87.52;94613.31;5073812;28;1119;-54
2023/05/17 11:54:52;;;;;;;;;;;;;;;17.41;87.52;94594.13;5073876;28;1910;-55
2023/05/17 11:57:20;;;;;;;;;;;;;;;17.48;82.51;94593.03;5073785;28;1066;-54
2023/05/17 11:59:46;;;;;;;;;;;;;;;17.58;81.60;94591.75;5073756;28;1033;-55
2023/05/17 12:02:25;;;;;;;;;;;;;;;17.82;80.75;94590.13;5073639;28;1097;-55
2023/05/17 12:04:51;;;;;;;;;;;;;;;17.94;81.26;94591.09;5056353;28;1059;-55
2023/05/17 12:07:17;;;;;;;;;;;;;;;17.94;85.02;94601.91;5073896;28;1028;-55
2023/05/17 12:09:44;;;;;;;;;;;;;;;17.83;80.98;94594.47;5073907;28;1308;-55
2023/05/17 12:12:10;;;;;;;;;;;;;;;18.01;80.01;94589.16;5073801;28;1052;-55
2023/05/17 12:14:36;;;;;;;;;;;;;;;18.29;78.71;94587.88;5073510;28;2004;-54
2023/05/17 12:17:04;;;;;;;;;;;;;;;18.49;78.76;94576.84;5073496;28;1027;-55
2023/05/17 12:19:31;;;;;;;;;;;;;;;18.52;80.05;94582.66;5073097;28;1018;-55
2023/05/17 12:22:07;;;;;;;;;;;;;;;18.65;80.33;94567.31;5073716;28;977;-55
2023/05/17 12:24:40;;;;;;;;;;;;;;;18.64;77.74;94571.88;5073376;28;1112;-55
2023/05/17 12:27:06;;;;;;;;;;;;;;;18.39;80.93;94571.97;5073407;28;1066;-55
2023/05/17 12:29:32;;;;;;;;;;;;;;;18.22;81.59;94562.75;5073382;28;1105;-55
2023/05/17 12:32:00;;;;;;;;;;;;;;;18.20;84.77;94559.47;5073379;28;1876;-55
2023/05/17 12:34:27;;;;;;;;;;;;;;;18.35;81.00;94551.81;5073393;28;1913;-55
2023/05/17 12:36:53;;;;;;;;;;;;;;;18.47;80.76;94560.81;5073280;28;970;-55
2023/05/17 12:39:23;;;;;;;;;;;;;;;18.78;78.58;94555.50;5073158;28;1030;-55
2023/05/17 12:41:52;;;;;;;;;;;;;;;18.75;76.31;94558.66;5073549;28;1038;-55
2023/05/17 12:44:19;;;;;;;;;;;;;;;18.63;77.20;94564.00;5073073;28;1113;-55
2023/05/17 12:46:56;;;;;;;;;;;;;;;18.43;78.51;94575.88;5073254;28;1038;-55
2023/05/17 12:49:22;;;;;;;;;;;;;;;18.32;80.72;94574.72;5073125;28;1273;-55
2023/05/17 12:51:48;;;;;;;;;;;;;;;18.26;81.35;94575.63;5073386;28;1001;-56
2023/05/17 12:54:25;;;;;;;;;;;;;;;18.24;80.35;94575.00;5072966;28;1922;-55
2023/05/17 12:56:51;;;;;;;;;;;;;;;18.14;81.41;94588.22;5073083;28;1136;-55